createdAt,value
2019-02-09T00:00:41.478Z,99682.20
2019-02-09T00:03:10.852Z,99672.25
2019-02-09T00:05:40.125Z,99653.41
2019-02-09T00:08:10.863Z,99649.44
2019-02-09T00:10:40.398Z,99668.28
2019-02-09T00:13:09.826Z,99652.08
2019-02-09T00:15:39.376Z,99651.38
2019-02-09T00:18:08.822Z,99639.69
2019-02-09T00:20:38.255Z,99646.36
2019-02-09T00:23:08.872Z,99634.46
2019-02-09T00:25:38.153Z,99636.77
2019-02-09T00:28:07.514Z,99630.97
2019-02-09T00:30:36.888Z,99626.80
2019-02-09T00:33:06.282Z,99635.37
2019-02-09T00:35:35.592Z,99635.11
2019-02-09T00:38:05.207Z,99609.30
2019-02-09T00:40:34.847Z,99610.29
2019-02-09T00:43:04.672Z,99588.52
2019-02-09T00:45:34.556Z,99620.87
2019-02-09T00:48:03.954Z,99610.81
2019-02-09T00:50:33.552Z,99598.55
2019-02-09T00:53:02.851Z,99598.81
2019-02-09T00:55:32.113Z,99604.50
2019-02-09T00:58:01.419Z,99587.59
2019-02-09T01:00:32.466Z,99581.00
2019-02-09T01:03:01.737Z,99600.52
2019-02-09T01:05:33.972Z,99591.56
2019-02-09T01:08:04.292Z,99616.16
2019-02-09T01:10:33.910Z,99564.44
2019-02-09T01:13:03.839Z,99576.65
2019-02-09T01:15:33.407Z,99569.70
2019-02-09T01:18:03.110Z,99560.13
2019-02-09T01:20:32.766Z,99562.06
2019-02-09T01:23:02.674Z,99565.83
2019-02-09T01:25:32.059Z,99558.55
2019-02-09T01:28:01.310Z,99546.01
2019-02-09T01:30:30.650Z,99546.01
2019-02-09T01:33:00.015Z,99551.09
2019-02-09T01:35:29.563Z,99556.82
2019-02-09T01:37:58.875Z,99557.47
2019-02-09T01:40:29.652Z,99558.95
2019-02-09T01:42:59.383Z,99556.16
2019-02-09T01:45:34.799Z,99548.58
2019-02-09T01:48:04.744Z,99548.40
2019-02-09T01:50:34.635Z,99541.64
2019-02-09T01:53:04.384Z,99543.23
2019-02-09T01:55:33.744Z,99551.02
2019-02-09T01:58:03.543Z,99536.19
2019-02-09T02:00:37.379Z,99554.91
2019-02-09T02:03:06.778Z,99547.61
2019-02-09T02:05:36.137Z,99536.45
2019-02-09T02:08:06.688Z,99515.02
2019-02-09T02:10:39.017Z,99528.87
2019-02-09T02:13:11.028Z,99508.03
2019-02-09T02:15:41.953Z,99520.22
2019-02-09T02:18:11.963Z,99514.09
2019-02-09T02:20:41.566Z,99513.14
2019-02-09T02:23:10.853Z,99519.38
2019-02-09T02:25:40.182Z,99505.39
2019-02-09T02:28:09.582Z,99508.39
2019-02-09T02:30:39.785Z,99507.67
2019-02-09T02:33:09.726Z,99515.61
2019-02-09T02:35:39.164Z,99507.28
2019-02-09T02:38:08.659Z,99512.91
2019-02-09T02:40:38.491Z,99522.52
2019-02-09T02:43:07.803Z,99519.55
2019-02-09T02:45:37.080Z,99519.38
2019-02-09T02:48:06.727Z,99515.47
2019-02-09T02:50:35.998Z,99532.28
2019-02-09T02:53:05.484Z,99541.33
2019-02-09T02:55:34.850Z,99570.56
2019-02-09T02:58:04.578Z,99581.98
2019-02-09T03:00:35.728Z,99570.23
2019-02-09T03:03:05.870Z,99580.53
2019-02-09T03:05:35.279Z,99588.45
2019-02-09T03:08:05.607Z,99586.50
2019-02-09T03:10:34.960Z,99583.48
2019-02-09T03:13:04.692Z,99595.53
2019-02-09T03:15:35.598Z,99582.51
2019-02-09T03:18:05.665Z,99559.17
2019-02-09T03:20:34.948Z,99542.46
2019-02-09T03:23:04.601Z,99513.54
2019-02-09T03:25:35.500Z,99558.41
2019-02-09T03:28:05.280Z,99550.57
2019-02-09T03:30:46.431Z,99565.65
2019-02-09T03:33:05.912Z,99570.55
2019-02-09T03:35:35.176Z,99570.55
2019-02-09T03:38:04.922Z,99563.11
2019-02-09T03:40:34.203Z,99586.20
2019-02-09T03:43:03.591Z,99586.20
2019-02-09T03:45:34.646Z,99587.48
2019-02-09T03:48:04.663Z,99581.19
2019-02-09T03:50:34.329Z,99590.95
2019-02-09T03:53:04.050Z,99610.13
2019-02-09T03:55:33.524Z,99610.13
2019-02-09T03:58:03.265Z,99619.52
2019-02-09T04:00:33.238Z,99619.52
2019-02-09T04:03:03.770Z,99617.42
2019-02-09T04:05:33.422Z,99617.42
2019-02-09T04:08:02.883Z,99621.95
2019-02-09T04:10:32.315Z,99622.46
2019-02-09T04:13:01.902Z,99618.03
2019-02-09T04:15:31.404Z,99622.99
2019-02-09T04:18:00.713Z,99630.13
2019-02-09T04:20:30.053Z,99630.13
2019-02-09T04:22:59.343Z,99628.74
2019-02-09T04:25:28.636Z,99638.14
2019-02-09T04:27:57.954Z,99649.39
2019-02-09T04:30:33.785Z,99649.39
2019-02-09T04:33:03.166Z,99648.86
2019-02-09T04:35:32.442Z,99648.86
2019-02-09T04:38:01.748Z,99653.27
2019-02-09T04:40:32.873Z,99639.94
2019-02-09T04:43:02.232Z,99639.94
2019-02-09T04:45:31.641Z,99642.58
2019-02-09T04:48:00.929Z,99657.61
2019-02-09T04:50:30.141Z,99664.11
2019-02-09T04:52:59.452Z,99665.91
2019-02-09T04:55:29.260Z,99679.94
2019-02-09T04:57:58.587Z,99677.64
2019-02-09T05:00:30.924Z,99675.13
2019-02-09T05:03:00.631Z,99689.81
2019-02-09T05:05:31.813Z,99692.68
2019-02-09T05:08:01.214Z,99703.70
2019-02-09T05:10:30.485Z,99705.88
2019-02-09T05:12:59.798Z,99717.95
2019-02-09T05:15:29.165Z,99714.13
2019-02-09T05:17:58.458Z,99726.84
2019-02-09T05:20:27.832Z,99722.69
2019-02-09T05:22:57.468Z,99724.72
2019-02-09T05:25:26.884Z,99720.80
2019-02-09T05:27:56.364Z,99729.22
2019-02-09T05:30:28.428Z,99729.75
2019-02-09T05:33:00.548Z,99724.08
2019-02-09T05:35:29.442Z,99740.24
2019-02-09T05:37:59.084Z,99729.83
2019-02-09T05:40:28.525Z,99746.23
2019-02-09T05:42:57.863Z,99736.05
2019-02-09T05:45:29.852Z,99723.62
2019-02-09T05:47:59.359Z,99742.66
2019-02-09T05:50:28.795Z,99731.81
2019-02-09T05:52:58.403Z,99746.45
2019-02-09T05:55:27.697Z,99742.33
2019-02-09T05:57:57.032Z,99748.00
2019-02-09T06:00:31.068Z,99751.95
2019-02-09T06:03:00.635Z,99762.88
2019-02-09T06:05:29.939Z,99767.50
2019-02-09T06:07:59.368Z,99768.48
2019-02-09T06:10:28.720Z,99778.54
2019-02-09T06:12:58.084Z,99755.44
2019-02-09T06:15:29.226Z,99772.13
2019-02-09T06:17:58.495Z,99772.36
2019-02-09T06:20:29.914Z,99776.02
2019-02-09T06:22:59.587Z,99766.55
2019-02-09T06:25:29.334Z,99778.36
2019-02-09T06:27:58.781Z,99786.11
2019-02-09T06:30:34.327Z,99794.46
2019-02-09T06:33:04.103Z,99801.60
2019-02-09T06:35:33.392Z,99811.27
2019-02-09T06:38:02.763Z,99822.05
2019-02-09T06:40:32.100Z,99819.02
2019-02-09T06:43:01.398Z,99826.83
2019-02-09T06:45:30.905Z,99830.34
2019-02-09T06:48:21.110Z,99817.84
2019-02-09T06:50:50.912Z,99824.92
2019-02-09T06:53:20.204Z,99839.73
2019-02-09T06:55:49.534Z,99838.16
2019-02-09T06:58:18.889Z,99842.30
2019-02-09T07:00:48.234Z,99842.30
2019-02-09T07:03:17.529Z,99848.63
2019-02-09T07:05:46.802Z,99850.50
2019-02-09T07:08:16.819Z,99858.08
2019-02-09T07:10:46.465Z,99856.47
2019-02-09T07:13:16.099Z,99869.88
2019-02-09T07:15:45.432Z,99867.87
2019-02-09T07:18:14.800Z,99879.66
2019-02-09T07:20:44.399Z,99881.61
2019-02-09T07:23:13.747Z,99885.09
2019-02-09T07:25:43.047Z,99885.02
2019-02-09T07:28:12.327Z,99887.53
2019-02-09T07:30:41.622Z,99885.66
2019-02-09T07:33:11.336Z,99889.40
2019-02-09T07:35:40.637Z,99898.41
2019-02-09T07:38:10.349Z,99898.41
2019-02-09T07:40:39.645Z,99902.63
2019-02-09T07:43:09.081Z,99909.39
2019-02-09T07:45:38.555Z,99916.45
2019-02-09T07:48:08.173Z,99924.15
2019-02-09T07:50:37.458Z,99923.85
2019-02-09T07:53:06.821Z,99916.55
2019-02-09T07:55:36.398Z,99926.69
2019-02-09T07:58:05.933Z,99917.42
2019-02-09T08:00:37.148Z,99927.52
2019-02-09T08:03:06.965Z,99927.52
2019-02-09T08:05:36.726Z,99932.87
2019-02-09T08:08:06.610Z,99934.13
2019-02-09T08:10:38.987Z,99942.35
2019-02-09T08:13:09.679Z,99943.70
2019-02-09T08:15:39.157Z,99950.38
2019-02-09T08:18:09.749Z,99946.92
2019-02-09T08:20:39.355Z,99953.70
2019-02-09T08:23:12.496Z,99953.70
2019-02-09T08:25:42.825Z,99964.58
2019-02-09T08:28:15.535Z,99953.05
2019-02-09T08:30:47.183Z,99953.70
2019-02-09T08:33:16.788Z,99953.70
2019-02-09T08:35:46.156Z,99967.62
2019-02-09T08:38:16.896Z,99967.73
2019-02-09T08:40:46.271Z,99942.81
2019-02-09T08:43:15.543Z,99971.42
2019-02-09T08:45:44.924Z,99972.52
2019-02-09T08:48:14.628Z,99977.97
2019-02-09T08:50:50.042Z,99982.98
2019-02-09T08:53:19.323Z,99981.80
2019-02-09T08:55:48.677Z,99995.58
2019-02-09T08:58:17.990Z,99995.25
2019-02-09T09:00:47.338Z,99996.31
2019-02-09T09:03:16.941Z,99998.12
2019-02-09T09:05:46.379Z,100023.48
2019-02-09T09:08:16.143Z,100001.11
2019-02-09T09:10:45.568Z,100012.05
2019-02-09T09:13:15.290Z,100006.77
2019-02-09T09:15:50.756Z,100006.77
2019-02-09T09:18:20.103Z,100014.84
2019-02-09T09:20:52.674Z,100006.27
2019-02-09T09:23:22.047Z,100006.70
2019-02-09T09:25:51.810Z,100008.62
2019-02-09T09:28:21.163Z,100010.80
2019-02-09T09:30:50.465Z,100019.09
2019-02-09T09:33:20.118Z,100015.62
2019-02-09T09:35:49.399Z,100012.64
2019-02-09T09:38:18.941Z,100021.20
2019-02-09T09:40:48.230Z,100024.05
2019-02-09T09:43:18.012Z,100027.93
2019-02-09T09:45:47.432Z,100040.02
2019-02-09T09:48:19.621Z,100035.56
2019-02-09T09:50:48.995Z,100036.88
2019-02-09T09:53:19.148Z,100036.09
2019-02-09T09:55:48.788Z,100026.48
2019-02-09T09:58:18.218Z,100029.94
2019-02-09T10:00:47.776Z,100031.11
2019-02-09T10:03:17.148Z,100026.70
2019-02-09T10:05:46.475Z,100032.50
2019-02-09T10:08:16.152Z,100034.30
2019-02-09T10:10:45.481Z,100031.08
2019-02-09T10:13:14.822Z,100024.20
2019-02-09T10:15:44.134Z,100040.72
2019-02-09T10:18:13.420Z,100042.48
2019-02-09T10:20:42.744Z,100049.00
2019-02-09T10:23:12.040Z,100052.11
2019-02-09T10:25:41.431Z,100045.83
2019-02-09T10:28:10.769Z,100052.64
2019-02-09T10:30:40.178Z,100055.90
2019-02-09T10:33:09.537Z,100066.06
2019-02-09T10:35:38.842Z,100066.55
2019-02-09T10:38:08.141Z,100066.14
2019-02-09T10:40:38.527Z,100069.12
2019-02-09T10:43:09.374Z,100064.30
2019-02-09T10:45:38.716Z,100072.83
2019-02-09T10:48:08.506Z,100063.63
2019-02-09T10:50:43.607Z,100066.62
2019-02-09T10:53:13.035Z,100065.62
2019-02-09T10:55:42.430Z,100078.59
2019-02-09T10:58:11.858Z,100088.20
2019-02-09T11:00:50.091Z,100092.84
2019-02-09T11:03:19.951Z,100078.08
2019-02-09T11:05:49.239Z,100076.53
2019-02-09T11:08:18.878Z,100071.71
2019-02-09T11:10:48.259Z,100071.69
2019-02-09T11:13:17.618Z,100076.86
2019-02-09T11:15:46.926Z,100074.97
2019-02-09T11:18:16.306Z,100055.34
2019-02-09T11:20:45.633Z,100064.34
2019-02-09T11:23:15.112Z,100060.84
2019-02-09T11:25:44.738Z,100067.53
2019-02-09T11:28:14.007Z,100071.02
2019-02-09T11:30:43.313Z,100069.37
2019-02-09T11:33:12.957Z,100061.16
2019-02-09T11:35:42.248Z,100075.16
2019-02-09T11:38:11.640Z,100061.05
2019-02-09T11:40:41.164Z,100071.17
2019-02-09T11:43:10.600Z,100068.88
2019-02-09T11:45:40.037Z,100068.63
2019-02-09T11:48:09.414Z,100071.33
2019-02-09T11:50:38.755Z,100059.01
2019-02-09T11:53:08.191Z,100065.55
2019-02-09T11:55:37.496Z,100068.37
2019-02-09T11:58:07.612Z,100061.34
2019-02-09T12:00:46.510Z,100059.77
2019-02-09T12:03:16.341Z,100071.42
2019-02-09T12:05:45.884Z,100070.66
2019-02-09T12:08:15.201Z,100066.42
2019-02-09T12:10:44.484Z,100074.86
2019-02-09T12:13:14.321Z,100055.34
2019-02-09T12:15:44.338Z,100065.58
2019-02-09T12:18:15.479Z,100053.34
2019-02-09T12:20:45.162Z,100062.02
2019-02-09T12:23:14.517Z,100062.12
2019-02-09T12:25:43.827Z,100053.10
2019-02-09T12:28:13.944Z,100044.78
2019-02-09T12:30:43.505Z,100052.26
2019-02-09T12:33:13.640Z,100045.70
2019-02-09T12:35:43.894Z,100055.36
2019-02-09T12:38:13.999Z,100055.61
2019-02-09T12:40:43.381Z,100050.50
2019-02-09T12:43:12.849Z,100053.48
2019-02-09T12:45:42.704Z,100060.75
2019-02-09T12:48:12.836Z,100062.02
2019-02-09T12:50:42.151Z,100065.47
2019-02-09T12:53:11.736Z,100060.13
2019-02-09T12:55:41.028Z,100050.33
2019-02-09T12:58:10.415Z,100054.84
2019-02-09T13:00:40.345Z,100046.72
2019-02-09T13:03:12.743Z,100078.69
2019-02-09T13:05:42.047Z,100058.84
2019-02-09T13:08:11.483Z,100052.83
2019-02-09T13:10:40.793Z,100045.83
2019-02-09T13:13:10.153Z,100051.20
2019-02-09T13:15:39.877Z,100052.77
2019-02-09T13:18:09.336Z,100058.44
2019-02-09T13:20:39.031Z,100059.19
2019-02-09T13:23:10.433Z,100043.98
2019-02-09T13:25:39.975Z,100059.09
2019-02-09T13:28:09.361Z,100048.52
2019-02-09T13:30:42.093Z,100054.55
2019-02-09T13:33:12.646Z,100050.53
2019-02-09T13:35:42.377Z,100051.35
2019-02-09T13:38:11.845Z,100071.06
2019-02-09T13:40:41.203Z,100057.78
2019-02-09T13:43:10.589Z,100073.52
2019-02-09T13:48:26.701Z,100075.23
2019-02-09T13:50:55.978Z,100080.53
2019-02-09T13:53:25.292Z,100078.77
2019-02-09T13:55:54.597Z,100064.05
2019-02-09T13:58:23.919Z,100083.69
2019-02-09T14:00:53.195Z,100080.42
2019-02-09T14:03:22.513Z,100084.92
2019-02-09T14:05:51.812Z,100091.66
2019-02-09T14:08:21.129Z,100089.13
2019-02-09T14:10:50.395Z,100100.02
2019-02-09T14:13:19.726Z,100091.48
2019-02-09T14:15:49.009Z,100108.29
2019-02-09T14:18:18.393Z,100104.94
2019-02-09T14:20:47.714Z,100107.36
2019-02-09T14:23:16.983Z,100106.03
2019-02-09T14:25:46.301Z,100114.45
2019-02-09T14:28:15.619Z,100108.81
2019-02-09T14:30:45.064Z,100110.98
2019-02-09T14:33:14.479Z,100111.77
2019-02-09T14:35:44.192Z,100105.09
2019-02-09T14:38:13.754Z,100102.80
2019-02-09T14:40:43.415Z,100104.21
2019-02-09T14:43:13.330Z,100111.17
2019-02-09T14:45:44.306Z,100127.34
2019-02-09T14:48:13.722Z,100116.21
2019-02-09T14:50:43.111Z,100116.77
2019-02-09T14:53:13.012Z,100129.33
2019-02-09T14:55:42.592Z,100141.30
2019-02-09T14:58:12.130Z,100135.64
2019-02-09T15:00:44.645Z,100141.66
2019-02-09T15:03:14.958Z,100141.58
2019-02-09T15:05:44.876Z,100145.81
2019-02-09T15:08:14.306Z,100156.44
2019-02-09T15:10:43.998Z,100142.52
2019-02-09T15:13:14.369Z,100150.38
2019-02-09T15:15:55.835Z,100165.20
2019-02-09T15:18:25.380Z,100165.59
2019-02-09T15:21:01.123Z,100158.38
2019-02-09T15:23:30.459Z,100150.94
2019-02-09T15:25:59.802Z,100159.09
2019-02-09T15:28:29.125Z,100170.69
2019-02-09T15:30:58.555Z,100159.40
2019-02-09T15:33:27.881Z,100159.37
2019-02-09T15:35:58.672Z,100154.61
2019-02-09T15:38:28.638Z,100165.55
2019-02-09T15:40:57.894Z,100171.04
2019-02-09T15:43:27.311Z,100165.34
2019-02-09T15:45:56.686Z,100164.92
2019-02-09T15:48:25.984Z,100167.85
2019-02-09T15:50:55.282Z,100170.50
2019-02-09T15:53:24.598Z,100168.64
2019-02-09T15:55:53.905Z,100171.56
2019-02-09T15:58:23.202Z,100174.48
2019-02-09T16:00:52.586Z,100172.58
2019-02-09T16:03:21.895Z,100170.17
2019-02-09T16:05:51.629Z,100168.88
2019-02-09T16:08:20.939Z,100170.65
2019-02-09T16:10:50.540Z,100170.55
2019-02-09T16:13:19.893Z,100173.20
2019-02-09T16:15:49.643Z,100176.48
2019-02-09T16:18:18.955Z,100171.00
2019-02-09T16:20:48.271Z,100177.11
2019-02-09T16:23:17.836Z,100177.07
2019-02-09T16:25:47.200Z,100195.09
2019-02-09T16:28:16.517Z,100186.34
2019-02-09T16:30:45.806Z,100179.58
2019-02-09T16:33:15.120Z,100189.80
2019-02-09T16:35:44.422Z,100191.09
2019-02-09T16:38:13.706Z,100202.22
2019-02-09T16:40:43.018Z,100202.02
2019-02-09T16:43:12.443Z,100204.31
2019-02-09T16:45:41.943Z,100199.28
2019-02-09T16:48:12.165Z,100199.93
2019-02-09T16:50:41.469Z,100199.02
2019-02-09T16:53:10.775Z,100202.78
2019-02-09T16:55:40.162Z,100212.10
2019-02-09T16:58:09.441Z,100211.33
2019-02-09T17:00:45.662Z,100226.11
2019-02-09T17:03:15.005Z,100217.36
2019-02-09T17:05:44.366Z,100231.41
2019-02-09T17:08:13.884Z,100217.55
2019-02-09T17:10:43.431Z,100220.64
2019-02-09T17:13:12.858Z,100221.17
2019-02-09T17:15:42.166Z,100232.31
2019-02-09T17:18:11.515Z,100233.52
2019-02-09T17:20:40.824Z,100240.13
2019-02-09T17:23:10.236Z,100237.10
2019-02-09T17:25:39.542Z,100246.19
2019-02-09T17:28:09.176Z,100248.83
2019-02-09T17:30:39.497Z,100253.74
2019-02-09T17:33:09.247Z,100266.28
2019-02-09T17:35:38.661Z,100266.28
2019-02-09T17:38:08.047Z,100263.43
2019-02-09T17:40:43.475Z,100260.86
2019-02-09T17:43:12.912Z,100278.00
2019-02-09T17:45:57.202Z,100268.73
2019-02-09T17:48:28.451Z,100292.31
2019-02-09T17:50:57.754Z,100276.44
2019-02-09T17:53:27.101Z,100286.17
2019-02-09T17:55:56.477Z,100290.10
2019-02-09T17:58:25.778Z,100303.66
2019-02-09T18:00:59.110Z,100298.37
2019-02-09T18:03:28.480Z,100297.61
2019-02-09T18:05:58.073Z,100298.69
2019-02-09T18:08:27.467Z,100298.69
2019-02-09T18:10:56.849Z,100303.63
2019-02-09T18:13:26.145Z,100303.63
2019-02-09T18:15:55.444Z,100318.84
2019-02-09T18:18:25.001Z,100312.61
2019-02-09T18:20:54.368Z,100315.00
2019-02-09T18:23:23.675Z,100315.00
2019-02-09T18:25:52.940Z,100323.38
2019-02-09T18:28:22.242Z,100317.42
2019-02-09T18:30:51.520Z,100326.39
2019-02-09T18:33:21.021Z,100326.39
2019-02-09T18:35:50.407Z,100318.84
2019-02-09T18:38:19.707Z,100310.63
2019-02-09T18:40:48.981Z,100322.98
2019-02-09T18:43:18.283Z,100317.20
2019-02-09T18:45:47.855Z,100323.11
2019-02-09T18:48:17.150Z,100321.22
2019-02-09T18:50:46.467Z,100308.98
2019-02-09T18:53:15.729Z,100308.98
2019-02-09T18:55:45.027Z,100318.64
2019-02-09T18:58:14.466Z,100310.81
2019-02-09T19:00:44.136Z,100310.47
2019-02-09T19:03:13.549Z,100309.97
2019-02-09T19:05:42.858Z,100308.64
2019-02-09T19:08:12.301Z,100309.15
2019-02-09T19:10:41.606Z,100309.50
2019-02-09T19:13:10.897Z,100302.89
2019-02-09T19:15:40.630Z,100305.53
2019-02-09T19:18:10.030Z,100306.19
2019-02-09T19:20:45.447Z,100313.64
2019-02-09T19:23:14.783Z,100310.38
2019-02-09T19:25:44.162Z,100307.38
2019-02-09T19:28:13.530Z,100310.53
2019-02-09T19:30:42.901Z,100314.27
2019-02-09T19:33:12.324Z,100312.66
2019-02-09T19:35:41.622Z,100319.27
2019-02-09T19:38:11.008Z,100320.81
2019-02-09T19:40:40.326Z,100322.01
2019-02-09T19:43:09.772Z,100322.41
2019-02-09T19:45:41.860Z,100324.02
2019-02-09T19:48:11.518Z,100323.17
2019-02-09T19:50:41.075Z,100330.91
2019-02-09T19:53:10.526Z,100326.58
2019-02-09T19:55:39.836Z,100330.31
2019-02-09T19:58:09.139Z,100330.22
2019-02-09T20:00:46.630Z,100329.18
2019-02-09T20:03:16.011Z,100321.77
2019-02-09T20:05:45.384Z,100322.61
2019-02-09T20:08:15.122Z,100323.49
2019-02-09T20:10:44.782Z,100317.17
2019-02-09T20:13:15.028Z,100309.00
2019-02-09T20:15:44.464Z,100308.53
2019-02-09T20:18:13.766Z,100304.63
2019-02-09T20:20:47.170Z,100296.20
2019-02-09T20:23:14.050Z,100296.14
2019-02-09T20:25:43.347Z,100291.83
2019-02-09T20:28:12.896Z,100291.08
2019-02-09T20:30:43.551Z,100270.26
2019-02-09T20:33:14.857Z,100270.26
2019-02-09T20:35:45.893Z,100277.42
2019-02-09T20:38:16.378Z,100280.60
2019-02-09T20:40:49.565Z,100291.39
2019-02-09T20:43:21.765Z,100282.77
2019-02-09T20:45:52.671Z,100284.00
2019-02-09T20:48:23.279Z,100289.56
2019-02-09T20:50:53.699Z,100289.78
2019-02-09T20:53:23.019Z,100285.32
2019-02-09T20:55:52.303Z,100278.78
2019-02-09T20:58:21.729Z,100272.42
2019-02-09T21:00:51.731Z,100276.67
2019-02-09T21:03:21.017Z,100277.23
2019-02-09T21:05:50.665Z,100270.92
2019-02-09T21:08:19.997Z,100278.46
2019-02-09T21:10:49.266Z,100273.05
2019-02-09T21:13:18.608Z,100271.20
2019-02-09T21:15:47.905Z,100276.20
2019-02-09T21:18:17.465Z,100271.83
2019-02-09T21:20:46.804Z,100269.22
2019-02-09T21:23:16.339Z,100270.23
2019-02-09T21:25:47.882Z,100276.23
2019-02-09T21:28:17.203Z,100273.17
2019-02-09T21:30:47.379Z,100265.41
2019-02-09T21:33:18.627Z,100274.28
2019-02-09T21:35:48.101Z,100272.77
2019-02-09T21:38:17.477Z,100273.94
2019-02-09T21:40:48.002Z,100272.05
2019-02-09T21:43:17.301Z,100272.62
2019-02-09T21:45:46.605Z,100270.73
2019-02-09T21:48:15.984Z,100278.53
2019-02-09T21:50:45.330Z,100275.35
2019-02-09T21:53:14.681Z,100270.83
2019-02-09T21:55:44.002Z,100270.95
2019-02-09T21:58:13.764Z,100259.00
2019-02-09T22:00:45.419Z,100259.00
2019-02-09T22:03:15.181Z,100262.33
2019-02-09T22:05:51.474Z,100262.33
2019-02-09T22:08:19.589Z,100257.05
2019-02-09T22:10:48.078Z,100256.20
2019-02-09T22:13:17.347Z,100256.79
2019-02-09T22:15:46.642Z,100252.67
2019-02-09T22:18:15.947Z,100247.14
2019-02-09T22:20:52.569Z,100245.25
2019-02-09T22:23:16.466Z,100243.65
2019-02-09T22:25:45.780Z,100236.77
2019-02-09T22:28:15.076Z,100242.05
2019-02-09T22:30:44.495Z,100249.12
2019-02-09T22:33:13.819Z,100245.44
2019-02-09T22:35:43.093Z,100245.86
2019-02-09T22:38:12.420Z,100239.19
2019-02-09T22:40:42.052Z,100233.69
2019-02-09T22:43:12.926Z,100237.78
2019-02-09T22:45:42.296Z,100237.00
2019-02-09T22:48:12.311Z,100227.95
2019-02-09T22:50:48.288Z,100231.50
2019-02-09T22:53:17.573Z,100223.23
2019-02-09T22:55:47.067Z,100215.47
2019-02-09T22:58:17.174Z,100211.51
2019-02-09T23:00:58.675Z,100205.28
2019-02-09T23:03:31.043Z,100205.22
2019-02-09T23:06:15.611Z,100202.80
2019-02-09T23:08:53.456Z,100191.95
2019-02-09T23:11:22.773Z,100190.92
2019-02-09T23:13:52.068Z,100196.11
2019-02-09T23:16:21.353Z,100188.65
2019-02-09T23:18:50.726Z,100180.20
2019-02-09T23:21:20.035Z,100179.31
2019-02-09T23:23:49.311Z,100172.02
2019-02-09T23:26:18.620Z,100156.33
2019-02-09T23:28:47.923Z,100145.47
2019-02-09T23:31:17.231Z,100145.47
2019-02-09T23:33:46.510Z,100154.66
2019-02-09T23:36:16.586Z,100157.00
2019-02-09T23:38:46.193Z,100147.38
2019-02-09T23:41:15.507Z,100141.24
2019-02-09T23:43:44.792Z,100129.23
2019-02-09T23:46:14.069Z,100124.09
2019-02-09T23:48:43.379Z,100114.97
2019-02-09T23:51:12.669Z,100120.55
2019-02-09T23:53:42.127Z,100106.28
2019-02-09T23:56:11.509Z,100097.38
2019-02-09T23:58:40.876Z,100097.67
